Time;durP1;ratioP1;P1;durP2;ratioP2;P2;SDS_P1;SDS_P2;PMS_P1;PMS_P2;Temp;Humidity;BMP_temperature;BMP_pressure;BME280_temperature;BME280_humidity;BME280_pressure;Samples;Min_cycle;Max_cycle;Signal;HPM_P1;HPM_P2
2022/12/04 00:01:43;;;;;;;6.70;5.30;;;15.90;62.30;16.80;100832.00;;;;5055239;28;20205;-42
2022/12/04 00:04:09;;;;;;;6.20;5.20;;;15.80;61.80;16.80;100824.00;;;;5055239;28;20794;-42
2022/12/04 00:06:34;;;;;;;5.73;5.03;;;15.80;61.90;16.70;100829.00;;;;5037795;28;20273;-42
2022/12/04 00:09:00;;;;;;;5.70;5.10;;;15.80;62.00;16.70;100823.00;;;;5037510;28;20265;-42
2022/12/04 00:11:29;;;;;;;6.17;5.37;;;15.80;62.00;16.70;100828.00;;;;5055254;28;20206;-42
2022/12/04 00:13:54;;;;;;;6.97;5.70;;;15.70;62.00;16.70;100824.00;;;;5054934;28;20183;-42
2022/12/04 00:16:25;;;;;;;6.63;5.93;;;15.70;62.10;16.70;100816.00;;;;5055174;28;20206;-41
2022/12/04 00:18:51;;;;;;;5.87;5.27;;;15.70;62.10;16.70;100816.00;;;;5055263;28;20690;-41
2022/12/04 00:21:17;;;;;;;5.97;5.33;;;15.70;62.10;16.70;100817.00;;;;5054712;28;20176;-42
2022/12/04 00:23:43;;;;;;;5.67;5.17;;;15.70;62.10;16.60;100818.00;;;;5055227;28;20274;-43
2022/12/04 00:26:14;;;;;;;6.13;5.53;;;15.60;62.00;16.60;100822.00;;;;5037355;28;20221;-42
2022/12/04 00:28:41;;;;;;;5.93;5.33;;;15.60;62.00;16.60;100809.00;;;;5055355;28;20269;-42
2022/12/04 00:31:09;;;;;;;5.43;4.90;;;15.60;62.00;16.60;100814.00;;;;5055098;28;20266;-41
2022/12/04 00:33:35;;;;;;;5.90;4.93;;;15.60;62.00;16.60;100810.00;;;;5055571;28;20182;-42
2022/12/04 00:36:04;;;;;;;5.70;5.10;;;15.60;62.20;16.50;100804.00;;;;5056589;28;20275;-43
2022/12/04 00:38:29;;;;;;;6.30;5.40;;;15.50;62.10;16.50;100812.00;;;;5055600;28;20639;-43
2022/12/04 00:40:55;;;;;;;5.73;5.23;;;15.50;62.10;16.50;100810.00;;;;5055191;28;20252;-42
2022/12/04 00:43:21;;;;;;;5.63;5.13;;;15.50;62.10;16.50;100805.00;;;;5055090;28;20166;-42
2022/12/04 00:45:47;;;;;;;5.73;5.20;;;15.50;62.20;16.50;100799.00;;;;5055184;28;20181;-42
2022/12/04 00:48:13;;;;;;;5.40;4.93;;;15.50;62.30;16.50;100798.00;;;;5054866;28;20566;-43
2022/12/04 00:50:38;;;;;;;5.50;5.00;;;15.50;62.40;16.50;100795.00;;;;5054251;28;20204;-41
2022/12/04 00:53:04;;;;;;;5.57;5.07;;;15.40;62.30;16.40;100796.00;;;;5051065;28;20617;-42
2022/12/04 00:55:30;;;;;;;5.50;5.00;;;15.40;62.30;16.40;100799.00;;;;5051759;28;20202;-41
2022/12/04 00:57:55;;;;;;;5.70;5.20;;;15.40;62.40;16.40;100792.00;;;;5051365;28;20186;-41
2022/12/04 01:00:21;;;;;;;6.10;5.10;;;15.40;62.40;16.40;100716.00;;;;5051639;28;20362;-42
2022/12/04 01:02:47;;;;;;;5.50;5.00;;;15.40;62.40;16.40;100800.00;;;;5053726;28;20170;-42
2022/12/04 01:05:13;;;;;;;5.83;5.27;;;15.30;62.30;16.30;100802.00;;;;5052421;28;20170;-41
2022/12/04 01:07:38;;;;;;;5.53;5.03;;;15.30;62.30;16.30;100795.00;;;;5051540;28;20285;-41
2022/12/04 01:10:05;;;;;;;5.17;4.73;;;15.30;62.40;16.30;100785.00;;;;5051313;28;20178;-42
2022/12/04 01:12:31;;;;;;;5.17;4.77;;;15.30;62.50;16.30;100787.00;;;;5033643;28;20212;-42
2022/12/04 01:14:57;;;;;;;5.60;5.10;;;15.30;62.40;16.30;100794.00;;;;5051314;28;20226;-41
2022/12/04 01:17:22;;;;;;;6.57;4.90;;;15.30;62.40;16.20;100795.00;;;;5051116;28;20881;-42
2022/12/04 01:19:48;;;;;;;5.93;5.43;;;15.30;62.50;16.20;100786.00;;;;5051065;28;20624;-41
2022/12/04 01:22:14;;;;;;;5.37;4.87;;;15.20;62.50;16.20;100800.00;;;;5051153;28;20204;-42
2022/12/04 01:24:40;;;;;;;5.77;5.20;;;15.20;62.70;16.20;100796.00;;;;5050913;28;20175;-42
2022/12/04 01:27:05;;;;;;;5.40;4.90;;;15.20;62.70;16.20;100797.00;;;;5050974;28;20190;-42
2022/12/04 01:29:31;;;;;;;5.33;4.83;;;15.20;62.80;16.20;100797.00;;;;5033369;28;20170;-41
2022/12/04 01:31:57;;;;;;;5.53;5.03;;;15.20;62.80;16.20;100797.00;;;;5032655;28;20170;-43
2022/12/04 01:34:24;;;;;;;5.60;5.10;;;15.20;62.80;16.10;100799.00;;;;5051202;28;20175;-42
2022/12/04 01:36:50;;;;;;;5.33;4.87;;;15.20;62.80;16.10;100797.00;;;;5051262;28;20206;-42
2022/12/04 01:39:16;;;;;;;5.23;4.80;;;15.10;62.70;16.10;100797.00;;;;5050929;28;20722;-40
2022/12/04 01:41:41;;;;;;;5.77;5.27;;;15.10;62.70;16.10;100800.00;;;;5050274;28;20261;-44
2022/12/04 01:44:19;;;;;;;5.30;4.90;;;15.10;62.70;16.10;100792.00;;;;5050753;28;20198;-41
2022/12/04 01:46:49;;;;;;;5.20;4.70;;;15.10;62.90;16.00;100796.00;;;;5032969;28;20567;-42
2022/12/04 01:49:37;;;;;;;5.37;4.87;;;15.00;62.70;16.10;100785.00;;;;5033263;28;20174;-42
2022/12/04 01:52:16;;;;;;;5.03;4.63;;;15.00;62.70;16.00;100779.00;;;;5021639;28;20217;-42
2022/12/04 01:54:45;;;;;;;5.37;4.90;;;15.00;62.80;16.00;100781.00;;;;5034749;28;20167;-41
2022/12/04 01:57:22;;;;;;;6.20;5.20;;;15.00;62.70;16.00;100777.00;;;;5016169;28;20218;-42
2022/12/04 02:00:00;;;;;;;5.10;4.70;;;15.00;62.60;16.00;100780.00;;;;5050463;28;20162;-43
2022/12/04 02:02:31;;;;;;;5.20;4.70;;;14.90;62.60;16.00;100770.00;;;;5050951;28;20185;-41
2022/12/04 02:04:57;;;;;;;5.10;4.70;;;14.90;62.70;15.90;100773.00;;;;5034069;28;20175;-42
2022/12/04 02:07:23;;;;;;;4.93;4.53;;;14.90;62.70;15.90;100783.00;;;;5032631;28;20293;-41
2022/12/04 02:09:54;;;;;;;5.50;5.00;;;14.90;62.70;15.90;100784.00;;;;5050131;28;20174;-43
2022/12/04 02:12:42;;;;;;;4.80;4.40;;;14.90;62.60;15.90;100785.00;;;;5050379;28;20636;-43
2022/12/04 02:15:29;;;;;;;6.23;4.63;;;14.80;62.60;15.90;100756.00;;;;5034906;28;20201;-42
2022/12/04 02:18:18;;;;;;;5.97;5.33;;;14.80;62.60;15.90;100766.00;;;;5017956;28;20786;-42
2022/12/04 02:21:08;;;;;;;5.10;4.70;;;14.80;62.90;15.90;100700.00;;;;5051228;28;20205;-42
2022/12/04 02:24:11;;;;;;;4.60;4.20;;;14.80;62.90;15.80;100789.00;;;;5019871;28;20178;-41
2022/12/04 02:26:50;;;;;;;5.30;4.80;;;14.80;62.80;15.80;100786.00;;;;5050899;28;20245;-41
2022/12/04 02:29:38;;;;;;;5.10;4.70;;;14.80;62.90;15.80;100772.00;;;;5032317;28;20591;-42
2022/12/04 02:32:25;;;;;;;5.60;5.10;;;14.80;62.90;15.80;100780.00;;;;5016946;28;20538;-43
2022/12/04 02:35:04;;;;;;;4.97;4.53;;;14.70;62.80;15.80;100784.00;;;;5050323;28;20170;-44
2022/12/04 02:37:34;;;;;;;5.70;4.73;;;14.70;62.80;15.80;100784.00;;;;5016860;28;20186;-41
2022/12/04 02:40:30;;;;;;;5.40;4.90;;;14.70;62.90;15.80;100791.00;;;;5032134;28;20215;-42
2022/12/04 02:43:07;;;;;;;5.50;5.00;;;14.70;62.80;15.70;100790.00;;;;5047959;28;20677;-44
2022/12/04 02:45:43;;;;;;;4.90;4.50;;;14.70;62.80;15.70;100775.00;;;;5015650;28;20199;-42
2022/12/04 02:48:09;;;;;;;4.80;4.40;;;14.70;62.80;15.70;100788.00;;;;5032969;28;20556;-41
2022/12/04 02:50:37;;;;;;;5.53;5.03;;;14.70;62.90;15.70;100745.00;;;;5049350;28;20174;-42
2022/12/04 02:53:08;;;;;;;5.30;4.80;;;14.70;62.90;15.70;100771.00;;;;5015033;28;20190;-42
2022/12/04 02:55:43;;;;;;;4.90;4.50;;;14.60;62.80;15.70;100786.00;;;;5015299;28;20190;-42
2022/12/04 02:58:17;;;;;;;4.97;4.57;;;14.60;62.80;15.70;100773.00;;;;5015165;28;20212;-41
2022/12/04 03:00:43;;;;;;;4.90;4.50;;;14.60;62.90;15.70;100774.00;;;;5015826;28;20710;-42
2022/12/04 03:03:23;;;;;;;4.77;4.37;;;14.60;63.00;15.70;100795.00;;;;5014752;28;20178;-42
2022/12/04 03:06:09;;;;;;;4.83;4.43;;;14.60;63.00;15.70;100781.00;;;;5016719;28;20177;-43
2022/12/04 03:08:39;;;;;;;5.00;4.50;;;14.50;62.90;15.70;100793.00;;;;5047624;28;20244;-42
2022/12/04 03:11:05;;;;;;;5.00;4.60;;;14.60;63.10;15.70;100785.00;;;;5015026;28;20178;-42
2022/12/04 03:13:53;;;;;;;5.10;4.60;;;14.50;63.00;15.70;100796.00;;;;5048636;28;20201;-41
2022/12/04 03:16:29;;;;;;;4.77;4.37;;;14.50;63.10;15.50;100784.00;;;;5015017;28;21789;-43
2022/12/04 03:19:06;;;;;;;5.23;4.73;;;14.50;63.10;15.60;100797.00;;;;5015650;28;20260;-41
2022/12/04 03:21:37;;;;;;;4.87;4.47;;;14.50;63.10;15.60;100797.00;;;;5014915;28;20166;-42
2022/12/04 03:24:32;;;;;;;5.10;4.60;;;14.50;63.10;15.60;100802.00;;;;5031898;28;20169;-43
2022/12/04 03:27:13;;;;;;;4.90;4.50;;;14.40;63.30;15.60;100797.00;;;;5033616;28;20261;-41
2022/12/04 03:29:45;;;;;;;5.00;4.60;;;14.50;63.50;15.60;100791.00;;;;5033844;28;20182;-41
2022/12/04 03:32:37;;;;;;;5.47;4.70;;;14.40;64.50;15.60;100787.00;;;;5032271;28;20171;-42
2022/12/04 03:35:21;;;;;;;4.90;4.50;;;14.50;64.40;15.60;100794.00;;;;5021142;28;20799;-42
2022/12/04 03:38:02;;;;;;;5.50;4.70;;;14.50;64.00;15.60;100792.00;;;;5031130;28;20182;-42
2022/12/04 03:40:48;;;;;;;5.10;4.70;;;14.40;64.10;15.50;100787.00;;;;5014783;28;20159;-42
2022/12/04 03:43:19;;;;;;;5.23;4.73;;;14.40;64.10;15.50;100781.00;;;;5030681;28;20159;-41
2022/12/04 03:46:11;;;;;;;4.77;4.37;;;14.40;64.00;15.50;100783.00;;;;5015143;28;20174;-43
2022/12/04 03:48:57;;;;;;;5.03;4.63;;;14.40;64.10;15.50;100790.00;;;;5017322;28;20664;-42
2022/12/04 03:51:34;;;;;;;5.23;4.70;;;14.30;64.10;15.50;100775.00;;;;5015584;28;20189;-41
2022/12/04 03:54:31;;;;;;;5.20;4.80;;;14.30;64.10;15.50;100771.00;;;;5015204;28;20201;-42
2022/12/04 03:57:06;;;;;;;5.00;4.50;;;14.20;64.10;15.50;100780.00;;;;5022973;28;20225;-41
2022/12/04 04:00:00;;;;;;;4.80;4.40;;;14.20;64.20;15.50;100781.00;;;;5048631;28;20155;-43
2022/12/04 04:02:28;;;;;;;4.83;4.43;;;14.20;63.90;15.40;100785.00;;;;5033634;28;20167;-42
2022/12/04 04:04:55;;;;;;;4.63;4.23;;;14.20;64.10;15.40;100795.00;;;;5030791;28;20265;-42
2022/12/04 04:07:33;;;;;;;4.93;4.53;;;14.20;63.90;15.40;100793.00;;;;5014284;28;20194;-41
2022/12/04 04:10:04;;;;;;;4.70;4.30;;;14.30;64.00;15.40;100782.00;;;;5015435;28;20194;-41
2022/12/04 04:12:33;;;;;;;5.03;4.60;;;14.20;63.80;15.40;100787.00;;;;5014854;28;20159;-42
2022/12/04 04:26:28;;;;;;;5.20;4.70;;;14.10;63.90;15.30;100788.00;;;;5035266;28;20661;-43
2022/12/04 04:28:54;;;;;;;5.93;4.63;;;14.20;64.70;15.30;100798.00;;;;5034452;28;20273;-43
2022/12/04 04:31:31;;;;;;;5.47;4.53;;;14.20;65.00;15.30;100796.00;;;;5051839;28;20261;-40
2022/12/04 04:34:37;;;;;;;4.70;4.30;;;14.20;64.70;15.30;100796.00;;;;5053891;28;20174;-41
2022/12/04 04:37:25;;;;;;;5.03;4.63;;;14.20;64.70;15.30;100798.00;;;;5051790;28;20279;-43
2022/12/04 04:40:07;;;;;;;5.03;4.53;;;14.30;64.20;15.30;100780.00;;;;5034818;28;20155;-42
2022/12/04 04:42:49;;;;;;;4.97;4.43;;;14.30;64.00;15.30;100782.00;;;;5019014;28;20171;-42
2022/12/04 04:45:53;;;;;;;5.53;4.70;;;14.30;64.10;15.30;100783.00;;;;5019497;28;20181;-43
2022/12/04 04:48:24;;;;;;;7.13;5.13;;;14.20;63.70;15.20;100782.00;;;;5055249;28;20894;-42
2022/12/04 04:50:50;;;;;;;5.67;5.17;;;14.10;63.30;15.20;100783.00;;;;5021601;28;20567;-40
2022/12/04 04:53:22;;;;;;;5.83;5.33;;;14.10;63.10;15.20;100779.00;;;;5053242;28;20177;-43
2022/12/04 04:55:47;;;;;;;7.60;5.80;;;14.10;63.10;15.20;100750.00;;;;5037358;28;20196;-42
2022/12/04 04:58:18;;;;;;;6.23;5.63;;;14.00;62.90;14.90;100780.00;;;;5037253;28;20189;-43
2022/12/04 05:01:15;;;;;;;6.83;5.90;;;14.00;62.80;15.20;100779.00;;;;5073538;28;20537;-43
2022/12/04 05:03:41;;;;;;;6.53;5.93;;;14.00;62.50;15.10;100780.00;;;;5054243;28;20176;-43
2022/12/04 05:06:07;;;;;;;7.30;6.60;;;14.00;62.30;15.10;100775.00;;;;5071810;28;20614;-42
2022/12/04 05:08:33;;;;;;;6.90;6.27;;;14.00;62.10;15.10;100768.00;;;;5071515;28;20198;-42
2022/12/04 05:10:59;;;;;;;6.77;6.10;;;14.00;62.00;15.10;100767.00;;;;5071318;28;20217;-42
2022/12/04 05:13:27;;;;;;;7.00;6.40;;;14.00;61.90;15.10;100773.00;;;;5071715;28;20201;-42
2022/12/04 05:16:01;;;;;;;7.17;6.47;;;14.00;61.70;15.10;100777.00;;;;5073479;28;20197;-42
2022/12/04 05:18:27;;;;;;;6.60;6.00;;;14.00;61.50;15.10;100777.00;;;;5053579;28;20201;-43
2022/12/04 05:20:52;;;;;;;7.47;6.77;;;14.00;61.40;15.10;100776.00;;;;5071313;28;20235;-42
2022/12/04 05:23:18;;;;;;;7.27;6.57;;;13.90;61.20;15.10;100775.00;;;;5070796;28;20185;-42
2022/12/04 05:25:44;;;;;;;9.07;7.00;;;13.90;60.90;15.00;100770.00;;;;5071131;28;20177;-42
2022/12/04 05:28:09;;;;;;;8.00;6.57;;;13.90;61.10;15.00;100769.00;;;;5071061;28;20247;-42
2022/12/04 05:30:35;;;;;;;7.40;6.60;;;13.90;61.10;15.00;100771.00;;;;5070953;28;20672;-42
2022/12/04 05:33:01;;;;;;;7.30;6.60;;;13.90;61.30;15.00;100771.00;;;;5069835;28;20716;-42
2022/12/04 05:35:26;;;;;;;7.80;6.20;;;13.90;61.60;15.00;100770.00;;;;5071056;28;20205;-42
2022/12/04 05:37:52;;;;;;;8.00;6.93;;;13.80;61.70;15.00;100778.00;;;;5070167;28;20190;-43
2022/12/04 05:40:18;;;;;;;7.47;6.67;;;13.90;61.80;15.00;100772.00;;;;5070911;28;20174;-42
2022/12/04 05:42:44;;;;;;;6.53;5.93;;;13.80;61.60;15.00;100778.00;;;;5073958;28;20201;-42
2022/12/04 05:45:09;;;;;;;6.53;5.83;;;13.90;61.80;15.00;100776.00;;;;5070522;28;20180;-42
2022/12/04 05:47:42;;;;;;;6.33;5.73;;;13.90;61.80;15.00;100773.00;;;;5070571;28;20235;-42
2022/12/04 05:50:09;;;;;;;6.80;6.10;;;13.80;61.90;15.00;100769.00;;;;5070365;28;20173;-43
2022/12/04 05:52:35;;;;;;;6.30;5.70;;;13.80;61.90;15.00;100764.00;;;;5052268;28;20162;-42
2022/12/04 05:55:01;;;;;;;6.83;5.70;;;13.80;61.90;15.00;100762.00;;;;5070213;28;20664;-42
2022/12/04 05:57:26;;;;;;;6.70;5.77;;;13.80;62.10;15.00;100776.00;;;;5070034;28;20200;-42
2022/12/04 05:59:52;;;;;;;8.03;6.27;;;13.80;62.30;14.90;100776.00;;;;5069906;28;20665;-43
2022/12/04 06:02:18;;;;;;;6.20;5.27;;;13.80;62.20;14.90;100778.00;;;;5069684;28;20177;-43
2022/12/04 06:04:44;;;;;;;6.40;5.80;;;13.80;62.30;14.90;100781.00;;;;5070001;28;20161;-42
2022/12/04 06:07:10;;;;;;;6.77;5.70;;;13.70;62.30;14.90;100776.00;;;;5070218;28;20186;-43
2022/12/04 06:09:35;;;;;;;6.10;5.50;;;13.80;62.70;14.90;100768.00;;;;5070113;28;20170;-42
2022/12/04 06:12:01;;;;;;;8.07;5.57;;;13.80;62.60;14.90;100780.00;;;;5052013;28;20749;-43
2022/12/04 06:14:27;;;;;;;5.97;5.30;;;13.70;62.40;14.90;100776.00;;;;5069941;28;20212;-42
2022/12/04 06:16:53;;;;;;;6.67;5.40;;;13.70;62.50;14.90;100770.00;;;;5070128;28;20743;-42
2022/12/04 06:19:19;;;;;;;6.47;5.33;;;13.70;62.70;14.90;100780.00;;;;5070221;28;20174;-41
2022/12/04 06:21:47;;;;;;;5.97;5.37;;;13.70;62.60;14.90;100779.00;;;;5069593;28;20216;-43
2022/12/04 06:24:17;;;;;;;6.27;5.30;;;13.70;62.70;14.90;100781.00;;;;5069941;28;20177;-41
2022/12/04 06:26:43;;;;;;;5.70;5.20;;;13.70;62.70;14.80;100778.00;;;;5052691;28;20247;-41
2022/12/04 06:29:10;;;;;;;6.57;5.30;;;13.60;62.60;14.80;100778.00;;;;5069491;28;20252;-42
2022/12/04 06:31:36;;;;;;;6.03;5.27;;;13.60;62.60;14.80;100784.00;;;;5051301;28;20189;-43
2022/12/04 06:34:02;;;;;;;8.33;5.30;;;13.70;62.70;14.80;100785.00;;;;5069989;28;20182;-42
2022/12/04 06:36:28;;;;;;;6.07;5.00;;;13.70;62.70;14.80;100781.00;;;;5069381;28;20700;-41
2022/12/04 06:38:55;;;;;;;7.60;4.90;;;13.60;62.60;14.80;100779.00;;;;5069447;28;20177;-42
2022/12/04 06:41:21;;;;;;;6.20;4.77;;;13.60;62.60;14.80;100787.00;;;;5068877;28;20176;-41
2022/12/04 06:43:47;;;;;;;5.77;4.97;;;13.60;62.70;14.80;100789.00;;;;5069077;28;20173;-42
2022/12/04 06:46:35;;;;;;;5.80;4.63;;;13.60;62.60;14.80;100789.00;;;;5069354;28;20177;-42
2022/12/04 06:49:01;;;;;;;6.07;5.00;;;13.60;62.60;14.80;100800.00;;;;5068742;28;20157;-41
2022/12/04 06:51:32;;;;;;;5.23;4.73;;;13.60;62.60;14.70;100797.00;;;;5068768;28;20181;-42
2022/12/04 06:53:58;;;;;;;5.30;4.80;;;13.50;62.50;14.70;100794.00;;;;5073375;28;20216;-42
2022/12/04 06:56:26;;;;;;;4.77;4.37;;;13.50;62.50;14.70;100805.00;;;;5051258;28;20268;-42
2022/12/04 06:58:54;;;;;;;5.23;4.73;;;13.50;62.50;14.70;100810.00;;;;5069572;28;20188;-43
2022/12/04 07:01:25;;;;;;;4.93;4.53;;;13.50;62.50;14.70;100799.00;;;;5050624;28;20169;-42
2022/12/04 07:03:50;;;;;;;5.23;4.73;;;13.50;62.50;14.70;100805.00;;;;5051250;28;20166;-42
2022/12/04 07:06:19;;;;;;;5.03;4.53;;;13.50;62.50;14.60;100807.00;;;;5069023;28;20223;-43
2022/12/04 07:08:46;;;;;;;5.10;4.60;;;13.50;62.50;14.60;100792.00;;;;5068992;28;20911;-43
2022/12/04 07:11:13;;;;;;;5.00;4.50;;;13.50;62.50;14.70;100797.00;;;;5068905;28;20780;-41
2022/12/04 07:13:39;;;;;;;5.10;4.70;;;13.50;62.50;14.60;100803.00;;;;5068943;28;20269;-42
2022/12/04 07:16:06;;;;;;;4.97;4.57;;;13.40;62.50;14.60;100801.00;;;;5069045;28;20204;-43
2022/12/04 07:18:32;;;;;;;5.83;4.80;;;13.40;62.30;14.60;100799.00;;;;5068948;28;20182;-42
2022/12/04 07:20:58;;;;;;;5.13;4.63;;;13.40;62.50;14.60;100797.00;;;;5068937;28;20170;-41
2022/12/04 07:23:23;;;;;;;4.93;4.43;;;13.50;62.50;14.60;100800.00;;;;5050034;28;20185;-41
2022/12/04 07:25:49;;;;;;;4.73;4.33;;;13.40;62.30;14.60;100811.00;;;;5068869;28;20177;-42
2022/12/04 07:28:15;;;;;;;4.80;4.40;;;13.40;62.30;14.60;100816.00;;;;5068622;28;20189;-41
2022/12/04 07:30:41;;;;;;;4.87;4.47;;;13.40;62.40;14.60;100807.00;;;;5068524;28;20261;-42
2022/12/04 07:33:06;;;;;;;4.97;4.50;;;13.40;62.40;14.60;100815.00;;;;5068314;28;20177;-41
2022/12/04 07:35:32;;;;;;;5.10;4.50;;;13.40;62.40;14.60;100818.00;;;;5068973;28;20262;-42
2022/12/04 07:37:58;;;;;;;5.70;4.43;;;13.40;62.40;14.60;100817.00;;;;5069792;28;20193;-41
2022/12/04 07:40:23;;;;;;;4.70;4.30;;;13.30;62.40;14.60;100813.00;;;;5080194;28;20223;-42
2022/12/04 07:42:49;;;;;;;5.17;4.60;;;13.40;62.50;14.50;100813.00;;;;5073071;28;20837;-43
2022/12/04 07:45:15;;;;;;;4.50;4.10;;;13.30;62.50;14.50;100825.00;;;;5068599;28;20177;-41
2022/12/04 07:47:41;;;;;;;4.60;4.20;;;13.30;62.40;14.50;100827.00;;;;5068718;28;20728;-41
2022/12/04 07:50:07;;;;;;;4.73;4.33;;;13.30;62.50;14.50;100827.00;;;;5068208;28;20174;-41
2022/12/04 07:52:36;;;;;;;4.73;4.23;;;13.30;62.50;14.50;100829.00;;;;5067687;28;20216;-42
2022/12/04 07:55:06;;;;;;;4.40;4.00;;;13.30;62.70;14.50;100820.00;;;;5050396;28;20197;-42
2022/12/04 07:57:32;;;;;;;4.60;4.20;;;13.30;62.70;14.50;100809.00;;;;5068622;28;20190;-42
2022/12/04 07:59:58;;;;;;;4.93;4.10;;;13.30;62.50;14.50;100814.00;;;;5033738;28;20182;-43
2022/12/04 08:02:23;;;;;;;4.80;4.20;;;13.30;62.50;14.50;100826.00;;;;5071513;28;20866;-41
2022/12/04 08:04:49;;;;;;;4.33;4.00;;;13.30;62.40;14.50;100817.00;;;;5074399;28;20165;-42
2022/12/04 08:07:15;;;;;;;4.67;4.27;;;13.30;62.50;14.40;100744.00;;;;5072320;28;20193;-40
2022/12/04 08:09:41;;;;;;;4.90;4.40;;;13.30;62.50;14.40;100827.00;;;;5072279;28;20238;-42
2022/12/04 08:12:07;;;;;;;4.50;4.10;;;13.30;62.50;14.40;100827.00;;;;5071966;28;20201;-42
2022/12/04 08:14:32;;;;;;;4.40;4.00;;;13.20;62.30;14.40;100837.00;;;;5072290;28;20200;-42
2022/12/04 08:16:58;;;;;;;4.90;4.50;;;13.20;62.40;14.40;100832.00;;;;5071982;28;20205;-43
2022/12/04 08:19:24;;;;;;;4.70;4.30;;;13.20;62.70;14.40;100837.00;;;;5072070;28;20173;-42
2022/12/04 08:21:50;;;;;;;4.27;3.87;;;13.20;62.60;14.40;100837.00;;;;5071628;28;20165;-41
2022/12/04 08:24:15;;;;;;;4.33;3.93;;;13.10;62.50;14.40;100845.00;;;;5070865;28;20676;-44
2022/12/04 08:26:41;;;;;;;4.00;3.70;;;13.20;62.50;14.40;100845.00;;;;5071044;28;20200;-40
2022/12/04 08:29:07;;;;;;;4.63;4.23;;;13.20;62.60;14.40;100838.00;;;;5070447;28;20181;-41
2022/12/04 08:31:34;;;;;;;4.20;3.90;;;13.20;62.50;14.40;100835.00;;;;5070920;28;20168;-42
2022/12/04 08:34:02;;;;;;;4.13;3.83;;;13.10;62.20;14.40;100828.00;;;;5055370;28;20190;-42
2022/12/04 08:36:27;;;;;;;4.53;4.13;;;13.20;62.50;14.40;100831.00;;;;5051513;28;20312;-42
2022/12/04 08:38:53;;;;;;;4.23;3.87;;;13.10;62.40;14.30;100833.00;;;;5051636;28;20254;-41
2022/12/04 08:41:21;;;;;;;4.30;3.90;;;13.10;62.50;14.30;100837.00;;;;5051043;28;20249;-42
2022/12/04 08:43:47;;;;;;;3.87;3.57;;;13.10;62.70;14.30;100836.00;;;;5051447;28;20658;-41
2022/12/04 08:46:14;;;;;;;4.00;3.70;;;13.10;62.50;14.30;100836.00;;;;5051284;28;20202;-42
2022/12/04 08:48:40;;;;;;;4.00;3.70;;;13.10;62.80;14.30;100829.00;;;;5051396;28;20578;-43
2022/12/04 08:51:07;;;;;;;4.20;3.90;;;13.10;62.50;14.30;100837.00;;;;5033448;28;20177;-41
2022/12/04 08:53:33;;;;;;;4.23;3.83;;;13.10;62.50;14.30;100844.00;;;;5050936;28;20642;-41
2022/12/04 08:56:02;;;;;;;3.83;3.53;;;13.10;62.90;14.30;100831.00;;;;5033028;28;20194;-42
2022/12/04 08:58:28;;;;;;;4.07;3.77;;;13.00;62.60;14.30;100837.00;;;;5033391;28;20778;-42
2022/12/04 09:00:54;;;;;;;3.97;3.67;;;13.10;62.70;14.30;100835.00;;;;5050645;28;20254;-42
2022/12/04 09:03:20;;;;;;;4.00;3.70;;;13.10;62.80;14.30;100829.00;;;;5050373;28;20163;-42
2022/12/04 09:05:46;;;;;;;4.10;3.80;;;13.10;62.80;14.30;100833.00;;;;5051547;28;20200;-42
2022/12/04 09:08:13;;;;;;;4.10;3.80;;;13.00;62.50;14.20;100827.00;;;;5051337;28;20305;-43
2022/12/04 09:10:38;;;;;;;4.07;3.77;;;13.10;62.60;14.20;100819.00;;;;5051558;28;20569;-43
2022/12/04 09:13:04;;;;;;;4.07;3.73;;;13.00;62.60;14.20;100819.00;;;;5049814;28;20178;-42
2022/12/04 09:15:30;;;;;;;4.10;3.80;;;13.00;62.60;14.20;100823.00;;;;5050994;28;20202;-42
2022/12/04 09:17:56;;;;;;;3.83;3.53;;;13.00;62.80;14.20;100818.00;;;;5050515;28;20201;-41
2022/12/04 09:20:21;;;;;;;4.40;4.00;;;13.00;62.70;14.20;100816.00;;;;5051176;28;20246;-42
2022/12/04 09:22:47;;;;;;;4.03;3.70;;;12.90;62.70;14.20;100812.00;;;;5049838;28;20632;-42
2022/12/04 09:25:13;;;;;;;4.20;3.80;;;13.00;62.70;14.20;100822.00;;;;5050897;28;20631;-42
2022/12/04 09:27:42;;;;;;;3.90;3.60;;;13.00;62.70;14.10;100831.00;;;;5033344;28;20194;-43
2022/12/04 09:30:09;;;;;;;3.93;3.63;;;13.00;62.70;14.10;100830.00;;;;5050861;28;20213;-43
2022/12/04 09:32:35;;;;;;;3.90;3.60;;;12.90;62.70;14.10;100844.00;;;;5049633;28;20209;-42
2022/12/04 09:35:01;;;;;;;4.00;3.70;;;12.90;62.60;14.10;100850.00;;;;5049414;28;20646;-42
2022/12/04 09:37:26;;;;;;;3.97;3.67;;;13.00;63.90;14.10;100852.00;;;;5049297;28;20351;-42
2022/12/04 09:39:52;;;;;;;4.07;3.67;;;13.00;63.30;14.10;100852.00;;;;5050055;28;20224;-42
2022/12/04 09:42:43;;;;;;;4.00;3.70;;;13.00;63.00;14.10;100855.00;;;;5053330;28;20528;-43
2022/12/04 09:45:17;;;;;;;3.80;3.50;;;13.00;63.10;14.10;100854.00;;;;4975032;28;20288;-41
2022/12/04 09:47:45;;;;;;;3.90;3.60;;;13.00;63.40;14.10;100857.00;;;;5032207;28;20197;-43
2022/12/04 09:50:39;;;;;;;4.03;3.53;;;13.10;63.50;14.10;100857.00;;;;5037918;28;20202;-41
2022/12/04 09:53:18;;;;;;;3.40;3.10;;;13.20;63.30;14.20;100843.00;;;;5069349;28;20234;-42
2022/12/04 09:55:57;;;;;;;3.73;3.43;;;13.40;63.10;14.20;100860.00;;;;5051326;28;20193;-43
2022/12/04 09:58:27;;;;;;;4.10;3.70;;;13.50;62.60;14.30;100845.00;;;;5069191;28;20185;-42
2022/12/04 10:00:53;;;;;;;3.70;3.40;;;13.70;62.70;14.40;100853.00;;;;5069200;28;20185;-42
2022/12/04 10:03:20;;;;;;;3.63;3.33;;;13.90;62.40;14.50;100855.00;;;;5058306;28;20569;-42
2022/12/04 10:06:07;;;;;;;4.13;3.47;;;14.00;62.10;14.60;100853.00;;;;5045246;28;20170;-42
2022/12/04 10:08:41;;;;;;;3.30;3.00;;;14.20;61.80;14.70;100857.00;;;;5048100;28;20190;-40
2022/12/04 10:11:24;;;;;;;4.27;3.20;;;14.40;61.40;14.80;100843.00;;;;5045534;28;20757;-41
2022/12/04 10:14:22;;;;;;;3.70;3.30;;;14.50;61.00;14.90;100813.00;;;;5062364;28;20616;-41
2022/12/04 10:17:35;;;;;;;3.50;3.20;;;14.70;60.80;15.10;100827.00;;;;5052247;28;20209;-40
2022/12/04 10:20:48;;;;;;;4.40;3.33;;;14.90;60.70;15.20;100814.00;;;;5054076;28;20174;-42
2022/12/04 10:23:31;;;;;;;7.00;3.50;;;15.10;61.10;15.30;100811.00;;;;5015363;28;20204;-42
2022/12/04 10:25:57;;;;;;;5.73;3.00;;;15.40;61.10;15.50;100826.00;;;;5053131;28;20158;-41
2022/12/04 10:28:40;;;;;;;4.80;3.20;;;15.50;60.80;15.60;100822.00;;;;5053038;28;20633;-43
2022/12/04 10:31:10;;;;;;;7.93;3.30;;;15.70;60.70;15.80;100821.00;;;;5060392;28;20181;-43
2022/12/04 10:33:51;;;;;;;6.23;3.37;;;15.80;60.40;15.90;100821.00;;;;5051394;28;20201;-43
2022/12/04 10:36:22;;;;;;;4.87;3.53;;;15.90;60.50;16.00;100791.00;;;;5052000;28;20177;-43
2022/12/04 10:39:30;;;;;;;3.37;3.07;;;16.10;60.20;16.20;100808.00;;;;5050251;28;20168;-43
2022/12/04 10:42:18;;;;;;;4.43;2.97;;;16.20;59.90;16.30;100800.00;;;;5032006;28;20158;-42
2022/12/04 10:44:44;;;;;;;3.57;3.20;;;16.30;60.00;16.40;100797.00;;;;4982331;28;22993;-41
2022/12/04 10:47:10;;;;;;;5.83;3.40;;;16.40;59.80;16.50;100797.00;;;;5068555;28;20185;-42
2022/12/04 10:49:36;;;;;;;7.40;3.10;;;16.50;59.80;16.60;100797.00;;;;5050244;28;20531;-43
2022/12/04 10:52:02;;;;;;;5.10;3.30;;;16.60;59.70;16.70;100783.00;;;;5058446;28;20166;-43
2022/12/04 10:54:42;;;;;;;4.47;2.97;;;16.60;59.60;16.50;100781.00;;;;5040474;28;20215;-43
2022/12/04 10:57:12;;;;;;;3.93;3.10;;;16.70;59.70;16.80;100791.00;;;;5052407;28;20273;-43
2022/12/04 10:59:58;;;;;;;8.40;3.43;;;16.70;59.80;16.90;100787.00;;;;5068429;28;20178;-43
2022/12/04 11:02:29;;;;;;;9.87;3.20;;;16.70;59.80;16.90;100769.00;;;;5050795;28;20160;-42
2022/12/04 11:04:56;;;;;;;10.73;3.47;;;16.80;59.80;17.00;100780.00;;;;5033474;28;20182;-43
2022/12/04 11:07:43;;;;;;;8.50;3.43;;;16.80;59.80;17.00;100766.00;;;;5065248;28;20187;-42
2022/12/04 11:10:32;;;;;;;12.83;3.70;;;16.80;59.80;17.10;100768.00;;;;5036471;28;20248;-42
2022/12/04 11:13:13;;;;;;;8.50;3.30;;;16.90;60.00;17.10;100772.00;;;;5033648;28;20261;-43
2022/12/04 11:15:51;;;;;;;13.30;3.23;;;16.90;60.00;17.10;100774.00;;;;5048159;28;20190;-44
2022/12/04 11:18:28;;;;;;;5.07;3.40;;;16.90;60.00;17.20;100757.00;;;;5047977;28;20663;-42